sensor_id;sensor_type;location;lat;lon;timestamp;P1;durP1;ratioP1;P2;durP2;ratioP2
17570;SDS011;8903;52.220;20.978;2024-02-26T00:00:31;22.87;;;15.70;;
17570;SDS011;8903;52.220;20.978;2024-02-26T00:02:57;18.50;;;13.57;;
17570;SDS011;8903;52.220;20.978;2024-02-26T00:05:23;18.27;;;13.50;;
17570;SDS011;8903;52.220;20.978;2024-02-26T00:07:48;21.20;;;13.60;;
17570;SDS011;8903;52.220;20.978;2024-02-26T00:10:15;26.33;;;14.63;;
17570;SDS011;8903;52.220;20.978;2024-02-26T00:12:40;22.50;;;14.60;;
17570;SDS011;8903;52.220;20.978;2024-02-26T00:15:07;21.97;;;15.57;;
17570;SDS011;8903;52.220;20.978;2024-02-26T00:17:33;19.77;;;14.23;;
17570;SDS011;8903;52.220;20.978;2024-02-26T00:19:59;25.23;;;14.97;;
17570;SDS011;8903;52.220;20.978;2024-02-26T00:22:26;24.07;;;14.50;;
17570;SDS011;8903;52.220;20.978;2024-02-26T00:24:51;21.30;;;14.43;;
17570;SDS011;8903;52.220;20.978;2024-02-26T00:27:17;20.10;;;14.30;;
17570;SDS011;8903;52.220;20.978;2024-02-26T00:29:43;21.70;;;13.80;;
17570;SDS011;8903;52.220;20.978;2024-02-26T00:32:09;18.40;;;14.30;;
17570;SDS011;8903;52.220;20.978;2024-02-26T00:34:34;23.23;;;14.97;;
17570;SDS011;8903;52.220;20.978;2024-02-26T00:37:01;18.90;;;14.03;;
17570;SDS011;8903;52.220;20.978;2024-02-26T00:39:27;20.40;;;14.57;;
17570;SDS011;8903;52.220;20.978;2024-02-26T00:41:52;21.97;;;14.00;;
17570;SDS011;8903;52.220;20.978;2024-02-26T00:44:18;21.43;;;14.70;;
17570;SDS011;8903;52.220;20.978;2024-02-26T00:46:44;23.13;;;16.53;;
17570;SDS011;8903;52.220;20.978;2024-02-26T00:49:09;21.40;;;14.93;;
17570;SDS011;8903;52.220;20.978;2024-02-26T00:51:35;22.13;;;15.73;;
17570;SDS011;8903;52.220;20.978;2024-02-26T00:54:01;19.10;;;14.87;;
17570;SDS011;8903;52.220;20.978;2024-02-26T00:56:27;19.77;;;14.63;;
17570;SDS011;8903;52.220;20.978;2024-02-26T00:58:53;21.63;;;15.73;;
17570;SDS011;8903;52.220;20.978;2024-02-26T01:01:18;21.70;;;14.60;;
17570;SDS011;8903;52.220;20.978;2024-02-26T01:03:45;21.43;;;14.57;;
17570;SDS011;8903;52.220;20.978;2024-02-26T01:06:10;21.63;;;14.97;;
17570;SDS011;8903;52.220;20.978;2024-02-26T01:08:36;25.80;;;15.13;;
17570;SDS011;8903;52.220;20.978;2024-02-26T01:11:02;23.80;;;15.40;;
17570;SDS011;8903;52.220;20.978;2024-02-26T01:13:28;26.83;;;15.43;;
17570;SDS011;8903;52.220;20.978;2024-02-26T01:15:54;22.17;;;15.30;;
17570;SDS011;8903;52.220;20.978;2024-02-26T01:18:20;24.77;;;15.77;;
17570;SDS011;8903;52.220;20.978;2024-02-26T01:20:46;21.43;;;15.17;;
17570;SDS011;8903;52.220;20.978;2024-02-26T01:23:12;22.03;;;15.57;;
17570;SDS011;8903;52.220;20.978;2024-02-26T01:25:38;23.20;;;15.00;;
17570;SDS011;8903;52.220;20.978;2024-02-26T01:28:04;21.27;;;14.63;;
17570;SDS011;8903;52.220;20.978;2024-02-26T01:30:31;22.03;;;14.27;;
17570;SDS011;8903;52.220;20.978;2024-02-26T01:32:56;23.23;;;15.50;;
17570;SDS011;8903;52.220;20.978;2024-02-26T01:35:22;21.37;;;15.07;;
17570;SDS011;8903;52.220;20.978;2024-02-26T01:37:48;24.93;;;16.97;;
17570;SDS011;8903;52.220;20.978;2024-02-26T01:40:14;22.53;;;16.50;;
17570;SDS011;8903;52.220;20.978;2024-02-26T01:42:44;23.03;;;15.60;;
17570;SDS011;8903;52.220;20.978;2024-02-26T01:45:12;21.20;;;15.00;;
17570;SDS011;8903;52.220;20.978;2024-02-26T01:47:52;21.17;;;15.23;;
17570;SDS011;8903;52.220;20.978;2024-02-26T01:50:19;20.80;;;15.60;;
17570;SDS011;8903;52.220;20.978;2024-02-26T01:52:47;21.63;;;15.60;;
17570;SDS011;8903;52.220;20.978;2024-02-26T01:55:14;23.87;;;15.60;;
17570;SDS011;8903;52.220;20.978;2024-02-26T01:57:41;22.37;;;15.77;;
17570;SDS011;8903;52.220;20.978;2024-02-26T02:00:09;23.47;;;15.73;;
17570;SDS011;8903;52.220;20.978;2024-02-26T02:02:35;24.03;;;15.57;;
17570;SDS011;8903;52.220;20.978;2024-02-26T02:05:01;23.13;;;16.07;;
17570;SDS011;8903;52.220;20.978;2024-02-26T02:07:28;21.77;;;15.03;;
17570;SDS011;8903;52.220;20.978;2024-02-26T02:09:55;20.00;;;15.00;;
17570;SDS011;8903;52.220;20.978;2024-02-26T02:12:21;21.13;;;15.00;;
17570;SDS011;8903;52.220;20.978;2024-02-26T02:14:47;22.53;;;15.27;;
17570;SDS011;8903;52.220;20.978;2024-02-26T02:17:13;24.57;;;15.97;;
17570;SDS011;8903;52.220;20.978;2024-02-26T02:19:38;22.30;;;15.07;;
17570;SDS011;8903;52.220;20.978;2024-02-26T02:22:04;23.80;;;15.90;;
17570;SDS011;8903;52.220;20.978;2024-02-26T02:24:30;23.83;;;15.30;;
17570;SDS011;8903;52.220;20.978;2024-02-26T02:26:55;23.87;;;15.40;;
17570;SDS011;8903;52.220;20.978;2024-02-26T02:29:21;21.93;;;15.10;;
17570;SDS011;8903;52.220;20.978;2024-02-26T02:31:48;24.13;;;15.67;;
17570;SDS011;8903;52.220;20.978;2024-02-26T02:34:14;23.13;;;15.60;;
17570;SDS011;8903;52.220;20.978;2024-02-26T02:36:52;23.00;;;15.57;;
17570;SDS011;8903;52.220;20.978;2024-02-26T02:39:18;23.17;;;16.43;;
17570;SDS011;8903;52.220;20.978;2024-02-26T02:41:44;25.93;;;17.47;;
17570;SDS011;8903;52.220;20.978;2024-02-26T02:44:10;23.00;;;16.73;;
17570;SDS011;8903;52.220;20.978;2024-02-26T02:46:35;21.53;;;15.00;;
17570;SDS011;8903;52.220;20.978;2024-02-26T02:49:01;24.73;;;16.80;;
17570;SDS011;8903;52.220;20.978;2024-02-26T02:51:27;24.60;;;16.00;;
17570;SDS011;8903;52.220;20.978;2024-02-26T02:53:53;21.90;;;14.30;;
17570;SDS011;8903;52.220;20.978;2024-02-26T02:56:19;21.63;;;14.40;;
17570;SDS011;8903;52.220;20.978;2024-02-26T02:58:44;24.70;;;14.53;;
17570;SDS011;8903;52.220;20.978;2024-02-26T03:01:10;24.40;;;15.63;;
17570;SDS011;8903;52.220;20.978;2024-02-26T03:03:37;21.30;;;14.00;;
17570;SDS011;8903;52.220;20.978;2024-02-26T03:06:03;22.40;;;15.90;;
17570;SDS011;8903;52.220;20.978;2024-02-26T03:08:29;26.50;;;17.00;;
17570;SDS011;8903;52.220;20.978;2024-02-26T03:10:55;21.00;;;15.60;;
17570;SDS011;8903;52.220;20.978;2024-02-26T03:13:21;23.13;;;15.13;;
17570;SDS011;8903;52.220;20.978;2024-02-26T03:15:46;28.10;;;16.70;;
17570;SDS011;8903;52.220;20.978;2024-02-26T03:18:12;23.37;;;15.07;;
17570;SDS011;8903;52.220;20.978;2024-02-26T03:20:38;26.10;;;16.80;;
17570;SDS011;8903;52.220;20.978;2024-02-26T03:23:04;24.33;;;14.90;;
17570;SDS011;8903;52.220;20.978;2024-02-26T03:25:29;22.07;;;15.20;;
17570;SDS011;8903;52.220;20.978;2024-02-26T03:27:55;27.50;;;16.63;;
17570;SDS011;8903;52.220;20.978;2024-02-26T03:30:21;20.63;;;14.20;;
17570;SDS011;8903;52.220;20.978;2024-02-26T03:32:46;25.10;;;17.23;;
17570;SDS011;8903;52.220;20.978;2024-02-26T03:35:12;23.00;;;14.43;;
17570;SDS011;8903;52.220;20.978;2024-02-26T03:37:38;23.97;;;15.97;;
17570;SDS011;8903;52.220;20.978;2024-02-26T03:40:04;29.30;;;16.27;;
17570;SDS011;8903;52.220;20.978;2024-02-26T03:42:31;24.70;;;16.33;;
17570;SDS011;8903;52.220;20.978;2024-02-26T03:44:56;25.93;;;16.10;;
17570;SDS011;8903;52.220;20.978;2024-02-26T03:47:22;22.60;;;15.13;;
17570;SDS011;8903;52.220;20.978;2024-02-26T03:49:48;21.60;;;15.20;;
17570;SDS011;8903;52.220;20.978;2024-02-26T03:52:14;20.40;;;14.63;;
17570;SDS011;8903;52.220;20.978;2024-02-26T03:54:40;27.20;;;17.23;;
17570;SDS011;8903;52.220;20.978;2024-02-26T03:57:05;22.07;;;16.20;;
17570;SDS011;8903;52.220;20.978;2024-02-26T03:59:31;23.17;;;16.10;;
17570;SDS011;8903;52.220;20.978;2024-02-26T04:01:57;23.70;;;16.47;;
17570;SDS011;8903;52.220;20.978;2024-02-26T04:04:22;23.23;;;14.90;;
17570;SDS011;8903;52.220;20.978;2024-02-26T04:06:48;20.30;;;14.63;;
17570;SDS011;8903;52.220;20.978;2024-02-26T04:09:14;24.97;;;17.20;;
17570;SDS011;8903;52.220;20.978;2024-02-26T04:11:40;25.23;;;16.47;;
17570;SDS011;8903;52.220;20.978;2024-02-26T04:14:06;22.87;;;16.50;;
17570;SDS011;8903;52.220;20.978;2024-02-26T04:16:34;25.97;;;17.10;;
17570;SDS011;8903;52.220;20.978;2024-02-26T04:19:03;24.93;;;17.13;;
17570;SDS011;8903;52.220;20.978;2024-02-26T04:21:28;26.17;;;15.40;;
17570;SDS011;8903;52.220;20.978;2024-02-26T04:23:54;21.53;;;16.03;;
17570;SDS011;8903;52.220;20.978;2024-02-26T04:26:21;25.70;;;16.03;;
17570;SDS011;8903;52.220;20.978;2024-02-26T04:28:46;23.37;;;16.07;;
17570;SDS011;8903;52.220;20.978;2024-02-26T04:31:12;22.77;;;15.60;;
17570;SDS011;8903;52.220;20.978;2024-02-26T04:33:38;30.33;;;15.80;;
17570;SDS011;8903;52.220;20.978;2024-02-26T04:36:04;23.10;;;15.03;;
17570;SDS011;8903;52.220;20.978;2024-02-26T04:38:30;25.10;;;18.10;;
17570;SDS011;8903;52.220;20.978;2024-02-26T04:40:55;27.93;;;15.40;;
17570;SDS011;8903;52.220;20.978;2024-02-26T04:43:21;22.73;;;15.63;;
17570;SDS011;8903;52.220;20.978;2024-02-26T04:45:47;24.87;;;16.70;;
17570;SDS011;8903;52.220;20.978;2024-02-26T04:48:13;25.93;;;17.97;;
17570;SDS011;8903;52.220;20.978;2024-02-26T04:50:38;27.50;;;17.70;;
17570;SDS011;8903;52.220;20.978;2024-02-26T04:53:04;25.50;;;16.77;;
17570;SDS011;8903;52.220;20.978;2024-02-26T04:55:30;24.17;;;16.27;;
17570;SDS011;8903;52.220;20.978;2024-02-26T04:57:56;25.10;;;17.10;;
17570;SDS011;8903;52.220;20.978;2024-02-26T05:00:21;21.60;;;16.90;;
17570;SDS011;8903;52.220;20.978;2024-02-26T05:02:47;23.67;;;17.40;;
17570;SDS011;8903;52.220;20.978;2024-02-26T05:05:13;21.07;;;16.50;;
17570;SDS011;8903;52.220;20.978;2024-02-26T05:07:40;22.87;;;15.67;;
17570;SDS011;8903;52.220;20.978;2024-02-26T05:10:07;24.50;;;15.77;;
17570;SDS011;8903;52.220;20.978;2024-02-26T05:12:33;24.40;;;17.47;;
17570;SDS011;8903;52.220;20.978;2024-02-26T05:15:01;26.93;;;18.23;;
17570;SDS011;8903;52.220;20.978;2024-02-26T05:17:27;23.93;;;17.63;;
17570;SDS011;8903;52.220;20.978;2024-02-26T05:19:53;29.10;;;17.97;;
17570;SDS011;8903;52.220;20.978;2024-02-26T05:22:19;27.80;;;18.53;;
17570;SDS011;8903;52.220;20.978;2024-02-26T05:24:45;24.53;;;18.10;;
17570;SDS011;8903;52.220;20.978;2024-02-26T05:27:10;23.90;;;17.50;;
17570;SDS011;8903;52.220;20.978;2024-02-26T05:29:37;22.43;;;16.87;;
17570;SDS011;8903;52.220;20.978;2024-02-26T05:32:03;23.77;;;17.20;;
17570;SDS011;8903;52.220;20.978;2024-02-26T05:34:30;24.77;;;18.40;;
17570;SDS011;8903;52.220;20.978;2024-02-26T05:36:56;28.00;;;18.20;;
17570;SDS011;8903;52.220;20.978;2024-02-26T05:39:22;24.73;;;17.90;;
17570;SDS011;8903;52.220;20.978;2024-02-26T05:41:48;27.10;;;18.80;;
17570;SDS011;8903;52.220;20.978;2024-02-26T05:44:14;32.73;;;18.73;;
17570;SDS011;8903;52.220;20.978;2024-02-26T05:46:41;29.83;;;19.97;;
17570;SDS011;8903;52.220;20.978;2024-02-26T05:49:07;28.90;;;18.17;;
17570;SDS011;8903;52.220;20.978;2024-02-26T05:51:33;28.33;;;18.23;;
17570;SDS011;8903;52.220;20.978;2024-02-26T05:53:58;23.80;;;17.30;;
17570;SDS011;8903;52.220;20.978;2024-02-26T05:56:24;24.93;;;18.10;;
17570;SDS011;8903;52.220;20.978;2024-02-26T05:58:50;24.90;;;17.70;;
17570;SDS011;8903;52.220;20.978;2024-02-26T06:01:16;25.37;;;16.90;;
17570;SDS011;8903;52.220;20.978;2024-02-26T06:03:43;28.10;;;17.97;;
17570;SDS011;8903;52.220;20.978;2024-02-26T06:06:10;27.37;;;17.53;;
17570;SDS011;8903;52.220;20.978;2024-02-26T06:08:36;26.27;;;17.97;;
17570;SDS011;8903;52.220;20.978;2024-02-26T06:11:05;25.90;;;17.73;;
17570;SDS011;8903;52.220;20.978;2024-02-26T06:13:32;28.80;;;18.70;;
17570;SDS011;8903;52.220;20.978;2024-02-26T06:15:58;28.47;;;18.83;;
17570;SDS011;8903;52.220;20.978;2024-02-26T06:18:24;34.00;;;19.77;;
17570;SDS011;8903;52.220;20.978;2024-02-26T06:20:50;30.03;;;19.10;;
17570;SDS011;8903;52.220;20.978;2024-02-26T06:23:15;29.40;;;19.40;;
17570;SDS011;8903;52.220;20.978;2024-02-26T06:25:41;33.07;;;18.00;;
17570;SDS011;8903;52.220;20.978;2024-02-26T06:28:08;27.53;;;17.07;;
17570;SDS011;8903;52.220;20.978;2024-02-26T06:30:34;29.10;;;17.50;;
17570;SDS011;8903;52.220;20.978;2024-02-26T06:33:00;30.07;;;17.40;;
17570;SDS011;8903;52.220;20.978;2024-02-26T06:35:26;27.03;;;18.03;;
17570;SDS011;8903;52.220;20.978;2024-02-26T06:37:52;28.23;;;18.03;;
17570;SDS011;8903;52.220;20.978;2024-02-26T06:40:21;27.60;;;18.70;;
17570;SDS011;8903;52.220;20.978;2024-02-26T06:42:47;26.93;;;16.70;;
17570;SDS011;8903;52.220;20.978;2024-02-26T06:45:13;28.77;;;17.40;;
17570;SDS011;8903;52.220;20.978;2024-02-26T06:47:40;28.90;;;16.67;;
17570;SDS011;8903;52.220;20.978;2024-02-26T06:50:08;28.27;;;17.57;;
17570;SDS011;8903;52.220;20.978;2024-02-26T06:52:34;28.30;;;18.10;;
17570;SDS011;8903;52.220;20.978;2024-02-26T06:55:00;26.43;;;17.40;;
17570;SDS011;8903;52.220;20.978;2024-02-26T06:57:25;28.93;;;17.67;;
17570;SDS011;8903;52.220;20.978;2024-02-26T06:59:51;29.90;;;18.30;;
17570;SDS011;8903;52.220;20.978;2024-02-26T07:02:17;29.07;;;17.70;;
17570;SDS011;8903;52.220;20.978;2024-02-26T07:04:43;26.97;;;17.70;;
17570;SDS011;8903;52.220;20.978;2024-02-26T07:07:09;25.67;;;16.70;;
17570;SDS011;8903;52.220;20.978;2024-02-26T07:09:35;22.10;;;15.87;;
17570;SDS011;8903;52.220;20.978;2024-02-26T07:12:01;27.93;;;18.43;;
17570;SDS011;8903;52.220;20.978;2024-02-26T07:14:28;23.20;;;16.40;;
17570;SDS011;8903;52.220;20.978;2024-02-26T07:16:53;26.03;;;16.40;;
17570;SDS011;8903;52.220;20.978;2024-02-26T07:19:19;28.90;;;17.23;;
17570;SDS011;8903;52.220;20.978;2024-02-26T07:21:45;24.77;;;16.63;;
17570;SDS011;8903;52.220;20.978;2024-02-26T07:24:10;24.20;;;17.63;;
17570;SDS011;8903;52.220;20.978;2024-02-26T07:26:36;30.37;;;18.10;;
17570;SDS011;8903;52.220;20.978;2024-02-26T07:29:02;25.13;;;16.93;;
17570;SDS011;8903;52.220;20.978;2024-02-26T07:31:29;26.00;;;18.80;;
17570;SDS011;8903;52.220;20.978;2024-02-26T07:33:55;25.73;;;17.50;;
17570;SDS011;8903;52.220;20.978;2024-02-26T07:36:20;30.47;;;16.27;;
17570;SDS011;8903;52.220;20.978;2024-02-26T07:38:46;31.27;;;18.33;;
17570;SDS011;8903;52.220;20.978;2024-02-26T07:41:12;19.57;;;15.90;;
17570;SDS011;8903;52.220;20.978;2024-02-26T07:43:37;38.20;;;18.80;;
17570;SDS011;8903;52.220;20.978;2024-02-26T07:46:03;23.57;;;18.57;;
17570;SDS011;8903;52.220;20.978;2024-02-26T07:48:29;23.67;;;17.50;;
17570;SDS011;8903;52.220;20.978;2024-02-26T07:50:55;31.27;;;17.17;;
17570;SDS011;8903;52.220;20.978;2024-02-26T07:53:21;31.67;;;17.70;;
17570;SDS011;8903;52.220;20.978;2024-02-26T07:55:47;23.47;;;16.67;;
17570;SDS011;8903;52.220;20.978;2024-02-26T07:58:12;33.17;;;18.20;;
17570;SDS011;8903;52.220;20.978;2024-02-26T08:00:38;25.03;;;17.30;;
17570;SDS011;8903;52.220;20.978;2024-02-26T08:03:04;23.17;;;16.27;;
17570;SDS011;8903;52.220;20.978;2024-02-26T08:05:30;30.07;;;18.23;;
17570;SDS011;8903;52.220;20.978;2024-02-26T08:07:56;26.43;;;17.70;;
17570;SDS011;8903;52.220;20.978;2024-02-26T08:10:21;24.57;;;17.97;;
17570;SDS011;8903;52.220;20.978;2024-02-26T08:12:47;24.17;;;17.13;;
17570;SDS011;8903;52.220;20.978;2024-02-26T08:15:13;28.53;;;17.93;;
17570;SDS011;8903;52.220;20.978;2024-02-26T08:17:39;22.13;;;16.37;;
17570;SDS011;8903;52.220;20.978;2024-02-26T08:20:04;20.43;;;16.00;;
17570;SDS011;8903;52.220;20.978;2024-02-26T08:22:31;22.37;;;15.80;;
17570;SDS011;8903;52.220;20.978;2024-02-26T08:24:58;22.77;;;17.50;;
17570;SDS011;8903;52.220;20.978;2024-02-26T08:27:24;22.40;;;16.70;;
17570;SDS011;8903;52.220;20.978;2024-02-26T08:29:49;22.57;;;16.70;;
17570;SDS011;8903;52.220;20.978;2024-02-26T08:32:15;21.93;;;16.63;;
17570;SDS011;8903;52.220;20.978;2024-02-26T08:34:41;20.63;;;16.23;;
17570;SDS011;8903;52.220;20.978;2024-02-26T08:37:07;20.90;;;17.00;;
17570;SDS011;8903;52.220;20.978;2024-02-26T08:39:33;22.67;;;18.30;;
17570;SDS011;8903;52.220;20.978;2024-02-26T08:41:59;17.70;;;15.53;;
17570;SDS011;8903;52.220;20.978;2024-02-26T08:44:25;17.67;;;15.30;;
17570;SDS011;8903;52.220;20.978;2024-02-26T08:46:51;20.47;;;15.83;;
17570;SDS011;8903;52.220;20.978;2024-02-26T08:49:17;25.57;;;16.67;;
17570;SDS011;8903;52.220;20.978;2024-02-26T08:51:43;23.17;;;17.83;;
17570;SDS011;8903;52.220;20.978;2024-02-26T08:54:09;22.13;;;18.97;;
17570;SDS011;8903;52.220;20.978;2024-02-26T08:56:35;19.47;;;16.40;;
17570;SDS011;8903;52.220;20.978;2024-02-26T08:59:00;22.53;;;17.57;;
17570;SDS011;8903;52.220;20.978;2024-02-26T09:01:37;25.03;;;17.37;;
17570;SDS011;8903;52.220;20.978;2024-02-26T09:04:03;21.20;;;16.20;;
17570;SDS011;8903;52.220;20.978;2024-02-26T09:06:29;22.53;;;17.37;;
17570;SDS011;8903;52.220;20.978;2024-02-26T09:08:55;20.93;;;16.77;;
17570;SDS011;8903;52.220;20.978;2024-02-26T09:11:21;20.03;;;17.20;;
17570;SDS011;8903;52.220;20.978;2024-02-26T09:13:46;18.80;;;15.83;;
17570;SDS011;8903;52.220;20.978;2024-02-26T09:16:13;19.00;;;17.00;;
17570;SDS011;8903;52.220;20.978;2024-02-26T09:18:38;18.30;;;16.40;;
17570;SDS011;8903;52.220;20.978;2024-02-26T09:21:04;18.20;;;15.00;;
17570;SDS011;8903;52.220;20.978;2024-02-26T09:23:32;18.07;;;15.90;;
17570;SDS011;8903;52.220;20.978;2024-02-26T09:26:00;24.70;;;16.83;;
17570;SDS011;8903;52.220;20.978;2024-02-26T09:28:25;17.40;;;15.50;;
17570;SDS011;8903;52.220;20.978;2024-02-26T09:30:51;20.43;;;17.60;;
17570;SDS011;8903;52.220;20.978;2024-02-26T09:33:17;22.50;;;15.07;;
17570;SDS011;8903;52.220;20.978;2024-02-26T09:35:42;20.07;;;14.97;;
17570;SDS011;8903;52.220;20.978;2024-02-26T09:38:08;26.87;;;15.97;;
17570;SDS011;8903;52.220;20.978;2024-02-26T09:40:34;19.10;;;15.23;;
17570;SDS011;8903;52.220;20.978;2024-02-26T09:43:00;16.70;;;13.93;;
17570;SDS011;8903;52.220;20.978;2024-02-26T09:45:29;15.83;;;13.37;;
17570;SDS011;8903;52.220;20.978;2024-02-26T09:47:57;20.93;;;15.33;;
17570;SDS011;8903;52.220;20.978;2024-02-26T09:50:23;21.87;;;16.40;;
17570;SDS011;8903;52.220;20.978;2024-02-26T09:52:49;18.70;;;13.50;;
17570;SDS011;8903;52.220;20.978;2024-02-26T09:55:17;18.73;;;14.90;;
17570;SDS011;8903;52.220;20.978;2024-02-26T09:57:46;19.40;;;15.33;;
17570;SDS011;8903;52.220;20.978;2024-02-26T10:00:20;21.87;;;15.20;;
17570;SDS011;8903;52.220;20.978;2024-02-26T10:02:47;25.30;;;16.23;;
17570;SDS011;8903;52.220;20.978;2024-02-26T10:05:14;22.70;;;16.00;;
17570;SDS011;8903;52.220;20.978;2024-02-26T10:07:47;20.33;;;15.37;;
17570;SDS011;8903;52.220;20.978;2024-02-26T10:10:13;19.93;;;14.60;;
17570;SDS011;8903;52.220;20.978;2024-02-26T10:12:39;28.37;;;16.03;;
17570;SDS011;8903;52.220;20.978;2024-02-26T10:15:05;22.00;;;13.67;;
17570;SDS011;8903;52.220;20.978;2024-02-26T10:17:31;16.80;;;13.43;;
17570;SDS011;8903;52.220;20.978;2024-02-26T10:20:13;21.30;;;13.90;;
17570;SDS011;8903;52.220;20.978;2024-02-26T10:22:43;19.30;;;13.80;;
17570;SDS011;8903;52.220;20.978;2024-02-26T10:25:10;27.03;;;13.83;;
17570;SDS011;8903;52.220;20.978;2024-02-26T10:27:36;27.70;;;16.27;;
17570;SDS011;8903;52.220;20.978;2024-02-26T10:30:04;29.43;;;14.20;;
17570;SDS011;8903;52.220;20.978;2024-02-26T10:32:45;20.30;;;14.27;;
17570;SDS011;8903;52.220;20.978;2024-02-26T10:35:12;16.57;;;14.57;;
17570;SDS011;8903;52.220;20.978;2024-02-26T10:37:42;15.60;;;14.00;;
17570;SDS011;8903;52.220;20.978;2024-02-26T10:40:11;16.40;;;13.60;;
17570;SDS011;8903;52.220;20.978;2024-02-26T10:42:41;18.10;;;13.70;;
17570;SDS011;8903;52.220;20.978;2024-02-26T10:45:08;18.10;;;13.87;;
17570;SDS011;8903;52.220;20.978;2024-02-26T10:47:35;24.57;;;14.43;;
17570;SDS011;8903;52.220;20.978;2024-02-26T10:50:05;15.77;;;13.13;;
17570;SDS011;8903;52.220;20.978;2024-02-26T10:52:34;14.57;;;12.40;;
17570;SDS011;8903;52.220;20.978;2024-02-26T10:55:01;18.20;;;13.60;;
17570;SDS011;8903;52.220;20.978;2024-02-26T10:57:29;17.40;;;14.13;;
17570;SDS011;8903;52.220;20.978;2024-02-26T10:59:59;14.50;;;11.93;;
17570;SDS011;8903;52.220;20.978;2024-02-26T11:02:26;13.80;;;12.30;;
17570;SDS011;8903;52.220;20.978;2024-02-26T11:04:53;13.60;;;12.10;;
17570;SDS011;8903;52.220;20.978;2024-02-26T11:07:20;13.83;;;12.33;;
17570;SDS011;8903;52.220;20.978;2024-02-26T11:09:49;14.13;;;11.80;;
17570;SDS011;8903;52.220;20.978;2024-02-26T11:12:17;14.67;;;11.47;;
17570;SDS011;8903;52.220;20.978;2024-02-26T11:14:46;12.33;;;11.13;;
17570;SDS011;8903;52.220;20.978;2024-02-26T11:17:20;27.60;;;11.10;;
17570;SDS011;8903;52.220;20.978;2024-02-26T11:19:46;12.87;;;11.17;;
17570;SDS011;8903;52.220;20.978;2024-02-26T11:22:15;11.47;;;9.77;;
17570;SDS011;8903;52.220;20.978;2024-02-26T11:24:40;12.73;;;10.70;;
17570;SDS011;8903;52.220;20.978;2024-02-26T11:27:08;14.70;;;11.17;;
17570;SDS011;8903;52.220;20.978;2024-02-26T11:29:54;10.27;;;9.27;;
17570;SDS011;8903;52.220;20.978;2024-02-26T11:32:22;12.53;;;8.67;;
17570;SDS011;8903;52.220;20.978;2024-02-26T11:34:48;9.17;;;8.27;;
17570;SDS011;8903;52.220;20.978;2024-02-26T11:37:15;9.50;;;8.60;;
17570;SDS011;8903;52.220;20.978;2024-02-26T11:39:45;13.60;;;8.93;;
17570;SDS011;8903;52.220;20.978;2024-02-26T11:42:13;11.73;;;9.17;;
17570;SDS011;8903;52.220;20.978;2024-02-26T11:44:40;13.53;;;8.00;;
17570;SDS011;8903;52.220;20.978;2024-02-26T11:47:12;9.90;;;8.90;;
17570;SDS011;8903;52.220;20.978;2024-02-26T11:49:43;9.20;;;8.30;;
17570;SDS011;8903;52.220;20.978;2024-02-26T11:52:12;8.53;;;7.73;;
17570;SDS011;8903;52.220;20.978;2024-02-26T11:54:46;8.83;;;7.93;;
17570;SDS011;8903;52.220;20.978;2024-02-26T12:00:14;7.87;;;7.07;;
17570;SDS011;8903;52.220;20.978;2024-02-26T12:02:50;9.30;;;8.27;;
17570;SDS011;8903;52.220;20.978;2024-02-26T12:05:23;9.57;;;7.50;;
17570;SDS011;8903;52.220;20.978;2024-02-26T12:07:52;18.60;;;7.47;;
17570;SDS011;8903;52.220;20.978;2024-02-26T12:10:42;6.60;;;6.00;;
17570;SDS011;8903;52.220;20.978;2024-02-26T12:13:13;7.13;;;6.43;;
17570;SDS011;8903;52.220;20.978;2024-02-26T12:15:43;9.53;;;7.43;;
17570;SDS011;8903;52.220;20.978;2024-02-26T12:18:17;6.47;;;5.80;;
17570;SDS011;8903;52.220;20.978;2024-02-26T12:20:43;6.30;;;5.70;;
17570;SDS011;8903;52.220;20.978;2024-02-26T12:23:09;5.77;;;4.97;;
17570;SDS011;8903;52.220;20.978;2024-02-26T12:25:44;8.63;;;6.70;;
17570;SDS011;8903;52.220;20.978;2024-02-26T12:28:13;6.17;;;5.60;;
17570;SDS011;8903;52.220;20.978;2024-02-26T12:30:40;8.40;;;5.70;;
17570;SDS011;8903;52.220;20.978;2024-02-26T12:33:05;5.00;;;4.60;;
17570;SDS011;8903;52.220;20.978;2024-02-26T12:35:34;6.07;;;5.47;;
17570;SDS011;8903;52.220;20.978;2024-02-26T12:38:01;6.70;;;5.73;;
17570;SDS011;8903;52.220;20.978;2024-02-26T12:40:29;6.97;;;5.77;;
17570;SDS011;8903;52.220;20.978;2024-02-26T12:42:55;7.23;;;6.50;;
17570;SDS011;8903;52.220;20.978;2024-02-26T12:45:21;5.97;;;5.40;;
17570;SDS011;8903;52.220;20.978;2024-02-26T12:47:47;8.20;;;5.50;;
17570;SDS011;8903;52.220;20.978;2024-02-26T12:50:16;14.83;;;6.33;;
17570;SDS011;8903;52.220;20.978;2024-02-26T12:52:46;12.90;;;5.60;;
17570;SDS011;8903;52.220;20.978;2024-02-26T12:55:19;11.47;;;6.17;;
17570;SDS011;8903;52.220;20.978;2024-02-26T12:57:45;14.37;;;6.57;;
17570;SDS011;8903;52.220;20.978;2024-02-26T13:00:18;14.73;;;5.60;;
17570;SDS011;8903;52.220;20.978;2024-02-26T13:02:47;5.60;;;4.87;;
17570;SDS011;8903;52.220;20.978;2024-02-26T13:05:14;11.07;;;5.33;;
17570;SDS011;8903;52.220;20.978;2024-02-26T13:07:46;6.33;;;4.70;;
17570;SDS011;8903;52.220;20.978;2024-02-26T13:10:16;5.57;;;4.53;;
17570;SDS011;8903;52.220;20.978;2024-02-26T13:12:43;6.70;;;4.73;;
17570;SDS011;8903;52.220;20.978;2024-02-26T13:15:13;8.30;;;5.10;;
17570;SDS011;8903;52.220;20.978;2024-02-26T13:17:40;16.80;;;4.77;;
17570;SDS011;8903;52.220;20.978;2024-02-26T13:20:07;25.13;;;6.10;;
17570;SDS011;8903;52.220;20.978;2024-02-26T13:22:35;6.47;;;4.47;;
17570;SDS011;8903;52.220;20.978;2024-02-26T13:25:01;3.87;;;2.87;;
17570;SDS011;8903;52.220;20.978;2024-02-26T13:27:30;4.43;;;2.73;;
17570;SDS011;8903;52.220;20.978;2024-02-26T13:30:11;6.90;;;3.90;;
17570;SDS011;8903;52.220;20.978;2024-02-26T13:32:38;5.57;;;3.73;;
17570;SDS011;8903;52.220;20.978;2024-02-26T13:35:09;7.83;;;3.93;;
17570;SDS011;8903;52.220;20.978;2024-02-26T13:37:36;5.00;;;3.83;;
17570;SDS011;8903;52.220;20.978;2024-02-26T13:40:10;3.30;;;3.00;;
17570;SDS011;8903;52.220;20.978;2024-02-26T13:42:39;10.07;;;3.40;;
17570;SDS011;8903;52.220;20.978;2024-02-26T13:45:05;3.80;;;3.43;;
17570;SDS011;8903;52.220;20.978;2024-02-26T13:47:37;4.50;;;3.00;;
17570;SDS011;8903;52.220;20.978;2024-02-26T13:50:02;6.10;;;3.00;;
17570;SDS011;8903;52.220;20.978;2024-02-26T13:52:29;4.80;;;3.70;;
17570;SDS011;8903;52.220;20.978;2024-02-26T13:54:59;4.80;;;3.53;;
17570;SDS011;8903;52.220;20.978;2024-02-26T13:57:25;3.50;;;3.07;;
17570;SDS011;8903;52.220;20.978;2024-02-26T13:59:52;4.33;;;3.10;;
17570;SDS011;8903;52.220;20.978;2024-02-26T14:02:17;3.57;;;3.27;;
17570;SDS011;8903;52.220;20.978;2024-02-26T14:04:43;6.40;;;3.70;;
17570;SDS011;8903;52.220;20.978;2024-02-26T14:07:10;9.03;;;3.90;;
17570;SDS011;8903;52.220;20.978;2024-02-26T14:09:42;4.90;;;4.03;;
17570;SDS011;8903;52.220;20.978;2024-02-26T14:12:09;7.93;;;4.77;;
17570;SDS011;8903;52.220;20.978;2024-02-26T14:14:38;4.20;;;3.80;;
17570;SDS011;8903;52.220;20.978;2024-02-26T14:17:07;4.43;;;3.33;;
17570;SDS011;8903;52.220;20.978;2024-02-26T14:19:37;10.63;;;4.93;;
17570;SDS011;8903;52.220;20.978;2024-02-26T14:22:05;8.80;;;3.67;;
17570;SDS011;8903;52.220;20.978;2024-02-26T14:24:31;7.20;;;3.87;;
17570;SDS011;8903;52.220;20.978;2024-02-26T14:27:08;6.90;;;3.70;;